Time;durP1;ratioP1;P1;durP2;ratioP2;P2;SDS_P1;SDS_P2;PMS_P1;PMS_P2;Temp;Humidity;BMP_temperature;BMP_pressure;BME280_temperature;BME280_humidity;BME280_pressure;Samples;Min_cycle;Max_cycle;Signal;HPM_P1;HPM_P2
2023/03/17 00:01:16;;;;;;;6.88;5.07;;;;;;;6.15;57.25;96503.91;4981565;28;20051;-82
2023/03/17 00:03:45;;;;;;;7.32;4.45;;;;;;;6.13;57.35;96498.06;4981883;28;20410;-80
2023/03/17 00:06:15;;;;;;;7.13;5.40;;;;;;;6.07;56.74;96490.91;4981434;28;20054;-83
2023/03/17 00:08:45;;;;;;;9.43;5.15;;;;;;;6.04;57.58;96501.59;4980821;28;20394;-81
2023/03/17 00:11:14;;;;;;;6.13;4.97;;;;;;;6.02;56.97;96495.75;4981170;28;20070;-79
2023/03/17 00:13:43;;;;;;;5.95;4.90;;;;;;;6.01;57.29;96488.94;4980501;28;20058;-81
2023/03/17 00:16:16;;;;;;;6.35;4.75;;;;;;;5.98;57.75;96487.47;4980096;28;20055;-80
2023/03/17 00:18:44;;;;;;;6.57;5.15;;;;;;;5.94;57.07;96487.91;4979198;28;20102;-80
2023/03/17 00:21:14;;;;;;;6.25;4.10;;;;;;;5.93;57.27;96488.91;4980122;28;20138;-78
2023/03/17 00:23:45;;;;;;;5.72;4.55;;;;;;;5.89;58.29;96485.00;4979885;28;20138;-84
2023/03/17 00:26:14;;;;;;;6.30;4.63;;;;;;;5.87;58.01;96484.34;4979946;28;20134;-81
2023/03/17 00:28:42;;;;;;;5.38;4.07;;;;;;;5.86;58.80;96478.34;4979200;28;20053;-79
2023/03/17 00:31:13;;;;;;;7.45;4.95;;;;;;;5.83;59.01;96476.06;4980102;28;20043;-82
2023/03/17 00:33:44;;;;;;;5.53;4.43;;;;;;;5.81;58.08;96470.22;4979402;28;20468;-82
2023/03/17 00:36:16;;;;;;;5.28;4.78;;;;;;;5.78;58.94;96480.88;4979922;28;20137;-79
2023/03/17 00:38:45;;;;;;;5.65;4.15;;;;;;;5.75;59.04;96471.66;4979405;28;20494;-81
2023/03/17 00:41:13;;;;;;;6.25;5.00;;;;;;;5.74;58.93;96476.97;4980218;28;20086;-79
2023/03/17 00:43:41;;;;;;;7.50;4.90;;;;;;;5.72;59.64;96471.16;4980804;28;20055;-83
2023/03/17 00:46:13;;;;;;;8.45;5.35;;;;;;;5.69;59.36;96469.69;4981165;28;20053;-79
2023/03/17 00:48:43;;;;;;;10.43;4.75;;;;;;;5.68;59.15;96464.66;4979856;28;20510;-81
2023/03/17 00:51:11;;;;;;;6.63;5.15;;;;;;;5.63;59.35;96454.78;4980674;28;20050;-81
2023/03/17 00:53:39;;;;;;;6.10;5.07;;;;;;;5.64;59.14;96455.56;4979637;28;20138;-80
2023/03/17 00:56:13;;;;;;;8.05;5.38;;;;;;;5.61;59.14;96448.94;4980576;28;20066;-81
2023/03/17 00:58:41;;;;;;;7.72;5.82;;;;;;;5.62;59.43;96439.38;4982024;28;20135;-79
2023/03/17 01:01:09;;;;;;;10.80;5.40;;;;;;;5.61;59.00;96437.78;5014185;23;20069;-79
2023/03/17 01:03:37;;;;;;;6.72;5.60;;;;;;;5.60;59.51;96434.38;4996268;28;20595;-79
2023/03/17 01:06:10;;;;;;;5.65;4.85;;;;;;;5.56;59.32;96431.28;4996571;28;20050;-79
2023/03/17 01:08:38;;;;;;;9.07;5.50;;;;;;;5.54;59.38;96429.81;4995490;28;20137;-79
2023/03/17 01:11:07;;;;;;;5.72;4.90;;;;;;;5.50;59.34;96431.09;4996097;28;20051;-78
2023/03/17 01:13:35;;;;;;;6.22;5.25;;;;;;;5.48;60.17;96423.47;4996578;28;20055;-79
2023/03/17 01:16:03;;;;;;;7.15;5.18;;;;;;;5.50;59.06;96418.97;4995935;28;20057;-78
2023/03/17 01:18:31;;;;;;;7.53;5.75;;;;;;;5.49;59.50;96413.97;4995616;28;20042;-79
2023/03/17 01:20:59;;;;;;;7.70;4.80;;;;;;;5.48;58.76;96407.16;4996282;28;20464;-79
2023/03/17 01:23:28;;;;;;;7.32;5.07;;;;;;;5.43;58.89;96412.00;4995875;28;20140;-79
2023/03/17 01:25:56;;;;;;;8.30;5.20;;;;;;;5.42;59.02;96418.13;4995962;28;20136;-79
2023/03/17 01:28:24;;;;;;;7.45;5.07;;;;;;;5.40;59.28;96414.88;4995198;28;20496;-78
2023/03/17 01:30:51;;;;;;;6.35;4.85;;;;;;;5.41;58.77;96411.34;4995919;28;20050;-78
2023/03/17 01:33:19;;;;;;;6.15;4.70;;;;;;;5.39;58.96;96408.09;4995937;28;20047;-78
2023/03/17 01:35:47;;;;;;;9.18;5.45;;;;;;;5.40;59.86;96407.09;4995889;28;20393;-79
2023/03/17 01:38:15;;;;;;;6.57;5.30;;;;;;;5.39;60.13;96408.09;4995013;28;20046;-79
2023/03/17 01:40:46;;;;;;;6.88;5.28;;;;;;;5.37;59.52;96403.84;4995697;28;20065;-79
2023/03/17 01:43:19;;;;;;;6.13;4.78;;;;;;;5.40;61.24;96407.94;4995692;28;20058;-78
2023/03/17 01:46:14;;;;;;;;;;;;;;;5.40;59.91;96395.00;4996295;28;20077;-79
2023/03/17 01:48:45;;;;;;;6.65;5.45;;;;;;;5.36;59.01;96397.06;4995006;28;19936;-79
2023/03/17 01:51:17;;;;;;;8.00;5.65;;;;;;;5.31;60.22;96394.16;4995710;28;20129;-79
2023/03/17 01:53:47;;;;;;;7.82;5.60;;;;;;;5.28;60.53;96391.84;4995600;28;20058;-79
2023/03/17 01:56:16;;;;;;;10.95;5.45;;;;;;;5.22;61.27;96382.13;4995666;28;20078;-79
2023/03/17 01:58:47;;;;;;;7.60;5.97;;;;;;;5.23;60.54;96381.16;4994545;28;20484;-78
2023/03/17 02:01:14;;;;;;;6.88;5.53;;;;;;;5.22;60.72;96381.31;4995247;28;20054;-78
2023/03/17 02:03:42;;;;;;;8.40;5.47;;;;;;;5.21;60.88;96379.72;4995382;28;20124;-79
2023/03/17 02:06:11;;;;;;;8.07;5.82;;;;;;;5.19;60.60;96374.69;4995365;28;20062;-79
2023/03/17 02:08:38;;;;;;;7.10;5.32;;;;;;;5.16;60.83;96377.59;4994018;28;20539;-79
2023/03/17 02:11:07;;;;;;;7.63;6.10;;;;;;;5.17;60.76;96371.44;4994923;28;20137;-79
2023/03/17 02:13:37;;;;;;;7.47;5.78;;;;;;;5.14;60.32;96372.56;4994879;28;20500;-79
2023/03/17 02:16:05;;;;;;;7.75;5.45;;;;;;;5.13;59.85;96362.38;4994945;28;20414;-78
2023/03/17 02:18:33;;;;;;;7.88;5.53;;;;;;;5.14;60.08;96367.38;4993809;28;20061;-78
2023/03/17 02:21:37;;;;;;;7.63;5.65;;;;;;;5.11;61.07;96372.84;4994894;28;20515;-78
2023/03/17 02:24:09;;;;;;;7.78;5.97;;;;;;;5.08;59.92;96367.19;4995216;28;20060;-79
2023/03/17 02:26:37;;;;;;;12.88;5.70;;;;;;;5.02;59.64;96370.38;4994733;28;20109;-78
2023/03/17 02:29:05;;;;;;;8.05;5.85;;;;;;;5.01;60.39;96389.41;4994029;28;20046;-78
2023/03/17 02:31:33;;;;;;;8.27;5.93;;;;;;;5.00;59.99;96380.88;4994745;28;20105;-78
2023/03/17 02:34:01;;;;;;;8.25;6.32;;;;;;;5.01;60.89;96385.09;4994757;28;20054;-79
2023/03/17 02:36:29;;;;;;;7.97;5.80;;;;;;;5.00;60.27;96377.47;4994730;28;20456;-78
2023/03/17 02:38:58;;;;;;;9.15;5.88;;;;;;;4.90;60.14;96375.81;4993843;28;20081;-78
2023/03/17 02:41:26;;;;;;;7.15;5.63;;;;;;;4.86;60.48;96374.47;4994330;28;20050;-79
2023/03/17 02:43:53;;;;;;;7.97;5.82;;;;;;;4.85;60.41;96370.25;4994733;28;20138;-79
2023/03/17 02:46:21;;;;;;;7.40;5.70;;;;;;;4.85;60.70;96372.84;4994525;28;20046;-79
2023/03/17 02:48:49;;;;;;;8.32;6.28;;;;;;;4.83;60.34;96372.22;4993818;28;20046;-78
2023/03/17 02:51:17;;;;;;;10.85;6.53;;;;;;;4.80;60.96;96372.50;4994312;28;20054;-79
2023/03/17 02:53:44;;;;;;;8.43;6.43;;;;;;;4.73;60.31;96366.31;4994271;28;20050;-78
2023/03/17 02:56:13;;;;;;;9.93;6.35;;;;;;;4.72;60.52;96375.84;4994034;28;20050;-79
2023/03/17 02:58:41;;;;;;;8.32;6.22;;;;;;;4.72;61.08;96365.53;4993513;28;20487;-78
2023/03/17 03:01:09;;;;;;;8.30;5.82;;;;;;;4.72;60.68;96372.44;4994075;28;20104;-78
2023/03/17 03:03:37;;;;;;;8.07;5.97;;;;;;;4.69;60.83;96370.16;4994207;28;20058;-78
2023/03/17 03:06:05;;;;;;;7.38;6.00;;;;;;;4.69;61.23;96370.16;4993839;28;20137;-78
2023/03/17 03:08:33;;;;;;;9.95;6.30;;;;;;;4.75;60.94;96377.31;4993108;28;20050;-78
2023/03/17 03:11:01;;;;;;;11.15;6.75;;;;;;;4.77;61.33;96377.16;4994358;28;20050;-79
2023/03/17 03:13:30;;;;;;;10.68;6.25;;;;;;;4.77;60.70;96374.56;4994008;28;20054;-78
2023/03/17 03:15:58;;;;;;;7.85;5.82;;;;;;;4.78;61.01;96374.41;4993706;28;20054;-79
2023/03/17 03:18:25;;;;;;;8.10;6.47;;;;;;;4.78;62.01;96377.00;4993212;28;20042;-79
2023/03/17 03:20:53;;;;;;;12.50;6.75;;;;;;;4.79;61.56;96373.47;4992811;28;20500;-78
2023/03/17 03:23:21;;;;;;;7.55;6.07;;;;;;;4.76;60.95;96350.50;4993774;28;20050;-79
2023/03/17 03:25:48;;;;;;;8.73;6.47;;;;;;;4.72;60.98;96350.00;4993691;28;20089;-79
2023/03/17 03:28:16;;;;;;;9.93;6.80;;;;;;;4.70;60.98;96359.69;4993062;28;20047;-78
2023/03/17 03:30:45;;;;;;;10.98;6.88;;;;;;;4.70;61.16;96362.28;4993565;28;20150;-78
2023/03/17 03:33:17;;;;;;;10.70;6.32;;;;;;;4.67;61.03;96356.59;4995617;28;20524;-79
2023/03/17 03:35:45;;;;;;;12.10;6.77;;;;;;;4.60;60.96;96365.91;4999555;28;20065;-80
2023/03/17 03:38:13;;;;;;;8.95;6.65;;;;;;;4.56;62.35;96354.25;4998057;28;20082;-79
2023/03/17 03:40:41;;;;;;;9.18;7.05;;;;;;;4.54;61.78;96362.13;4993966;28;20409;-78
2023/03/17 03:43:08;;;;;;;9.23;6.60;;;;;;;4.49;61.67;96347.09;4994204;28;20208;-79
2023/03/17 03:45:53;;;;;;;10.95;7.45;;;;;;;4.48;61.59;96350.66;4993710;28;20592;-79
2023/03/17 03:48:21;;;;;;;9.82;6.80;;;;;;;4.50;63.01;96356.47;4993228;28;20096;-79
2023/03/17 03:50:49;;;;;;;8.38;6.55;;;;;;;4.57;63.07;96361.03;4993432;28;20133;-78
2023/03/17 03:53:16;;;;;;;8.35;6.45;;;;;;;4.59;62.84;96348.75;4993338;28;20057;-78
2023/03/17 03:55:44;;;;;;;8.70;7.15;;;;;;;4.62;62.82;96349.28;4993323;28;20050;-79
2023/03/17 03:58:12;;;;;;;8.32;6.30;;;;;;;4.63;62.83;96345.72;4992423;28;20405;-79
2023/03/17 04:00:39;;;;;;;10.13;6.80;;;;;;;4.64;63.10;96336.22;4992649;28;20043;-79
2023/03/17 04:03:08;;;;;;;8.10;6.15;;;;;;;4.64;63.39;96337.03;4993237;28;20527;-78
2023/03/17 04:05:36;;;;;;;7.68;5.85;;;;;;;4.63;63.17;96343.13;4993870;28;20054;-79
2023/03/17 04:08:04;;;;;;;10.25;6.68;;;;;;;4.64;63.43;96344.78;4992592;28;20467;-78
2023/03/17 04:10:31;;;;;;;9.25;6.65;;;;;;;4.67;63.42;96348.84;4993450;28;20137;-79
2023/03/17 04:12:59;;;;;;;9.00;7.30;;;;;;;4.67;63.04;96335.91;4993023;28;20050;-79
2023/03/17 04:15:27;;;;;;;10.27;7.20;;;;;;;4.66;63.80;96340.28;4993361;28;20054;-79
2023/03/17 04:17:54;;;;;;;9.65;6.97;;;;;;;4.66;63.61;96335.09;4992442;28;20042;-78
2023/03/17 04:20:23;;;;;;;12.13;8.00;;;;;;;4.62;62.98;96328.63;4992752;28;20497;-79
2023/03/17 04:22:51;;;;;;;9.73;7.82;;;;;;;4.61;63.16;96326.19;4993446;28;20128;-79
2023/03/17 04:25:19;;;;;;;7.90;6.68;;;;;;;4.54;62.90;96324.19;4993159;28;20137;-78
2023/03/17 04:27:46;;;;;;;8.63;7.32;;;;;;;4.45;63.09;96317.34;4992333;28;20511;-79
2023/03/17 04:30:15;;;;;;;8.65;7.18;;;;;;;4.41;62.36;96328.13;4992687;28;20523;-79
2023/03/17 04:32:45;;;;;;;9.05;7.07;;;;;;;4.33;63.60;96326.31;4995905;28;20077;-79
2023/03/17 04:35:14;;;;;;;8.95;6.93;;;;;;;4.31;63.87;96312.75;4996930;28;20137;-79
2023/03/17 04:37:44;;;;;;;10.40;7.28;;;;;;;4.30;63.11;96318.84;4996792;28;20050;-79
2023/03/17 04:40:13;;;;;;;12.32;7.10;;;;;;;4.25;64.07;96311.56;4996679;28;20050;-79
2023/03/17 04:42:41;;;;;;;8.93;6.85;;;;;;;4.24;63.69;96314.28;4996777;28;20137;-79
2023/03/17 04:45:11;;;;;;;10.32;7.68;;;;;;;4.25;64.29;96319.31;4996897;28;20054;-78
2023/03/17 04:47:38;;;;;;;15.02;7.25;;;;;;;4.24;64.02;96314.28;4996628;28;20046;-79
2023/03/17 04:50:07;;;;;;;11.15;7.00;;;;;;;4.20;63.79;96318.09;4995378;28;20398;-78
2023/03/17 04:52:35;;;;;;;15.60;7.70;;;;;;;4.22;64.56;96316.19;4996513;28;20057;-79
2023/03/17 04:55:07;;;;;;;14.48;7.97;;;;;;;4.21;63.73;96314.59;4996980;28;20500;-79
2023/03/17 04:57:34;;;;;;;16.65;7.72;;;;;;;4.21;64.01;96312.00;4996817;28;20073;-79
2023/03/17 05:00:03;;;;;;;14.30;8.15;;;;;;;4.18;63.36;96314.91;4995614;28;20046;-79
2023/03/17 05:02:31;;;;;;;12.90;7.53;;;;;;;4.14;63.90;96316.94;4996567;28;20073;-79
2023/03/17 05:04:58;;;;;;;17.92;9.35;;;;;;;4.17;63.80;96314.06;4996202;28;20054;-78
2023/03/17 05:07:26;;;;;;;12.43;7.75;;;;;;;4.15;63.77;96304.84;4996318;28;20061;-78
2023/03/17 05:09:53;;;;;;;12.27;7.75;;;;;;;4.10;63.79;96292.38;4995903;28;20054;-78
2023/03/17 05:12:22;;;;;;;16.02;8.02;;;;;;;4.07;63.73;96308.19;4996154;28;20497;-78
2023/03/17 05:14:50;;;;;;;14.45;7.80;;;;;;;4.07;63.50;96314.16;4996519;28;20046;-79
2023/03/17 05:17:17;;;;;;;12.50;7.25;;;;;;;4.05;63.97;96321.22;4996378;28;20092;-79
2023/03/17 05:19:45;;;;;;;15.30;8.70;;;;;;;4.05;63.68;96310.91;4995233;28;20137;-79
2023/03/17 05:22:13;;;;;;;16.17;8.50;;;;;;;4.05;63.54;96310.91;4996130;28;20061;-78
2023/03/17 05:24:40;;;;;;;11.75;7.60;;;;;;;4.02;63.48;96302.63;4996277;28;20046;-78
2023/03/17 05:27:08;;;;;;;12.27;8.23;;;;;;;4.01;63.83;96309.56;4996175;28;20060;-79
2023/03/17 05:29:38;;;;;;;10.38;7.78;;;;;;;4.01;64.28;96311.34;4995394;28;20051;-79
2023/03/17 05:32:06;;;;;;;12.40;8.32;;;;;;;4.00;63.85;96310.56;4996182;28;20101;-79
2023/03/17 05:34:33;;;;;;;13.85;8.18;;;;;;;4.00;64.32;96299.38;4996955;28;20062;-79
2023/03/17 05:37:02;;;;;;;12.27;7.85;;;;;;;3.95;64.23;96294.69;4997023;28;20432;-79
2023/03/17 05:39:29;;;;;;;14.63;8.80;;;;;;;3.89;64.04;96292.69;4996072;28;20054;-79
2023/03/17 05:41:57;;;;;;;10.70;8.00;;;;;;;3.84;63.97;96293.13;4996552;28;20523;-79
2023/03/17 05:44:25;;;;;;;16.65;8.57;;;;;;;3.83;64.34;96285.56;4994819;28;20050;-78
2023/03/17 05:46:54;;;;;;;15.40;7.65;;;;;;;3.80;64.34;96293.56;4995751;28;20062;-79
2023/03/17 05:49:23;;;;;;;11.50;8.50;;;;;;;3.79;64.34;96284.22;4995172;28;20137;-78
2023/03/17 05:51:50;;;;;;;13.27;8.15;;;;;;;3.74;64.35;96284.66;4995760;28;20050;-78
2023/03/17 05:54:18;;;;;;;12.00;8.88;;;;;;;3.67;64.54;96279.28;4995796;28;20043;-79
2023/03/17 05:56:46;;;;;;;12.68;8.93;;;;;;;3.64;64.18;96271.81;4995708;28;20043;-79
2023/03/17 05:59:15;;;;;;;11.02;7.88;;;;;;;3.66;64.46;96280.22;4994828;28;20050;-79
2023/03/17 06:01:43;;;;;;;11.50;8.68;;;;;;;3.67;64.54;96276.69;4995876;28;20386;-79
2023/03/17 06:04:12;;;;;;;12.70;8.48;;;;;;;3.68;64.52;96280.88;4995260;28;20141;-79
2023/03/17 06:06:40;;;;;;;11.05;8.13;;;;;;;3.67;64.69;96276.69;4995613;28;20050;-78
2023/03/17 06:09:08;;;;;;;10.43;8.35;;;;;;;3.66;64.89;96280.22;4994594;28;20065;-79
2023/03/17 06:11:35;;;;;;;14.50;8.68;;;;;;;3.66;64.77;96285.38;4995102;28;20053;-79
2023/03/17 06:14:03;;;;;;;12.50;8.95;;;;;;;3.66;64.62;96285.38;4995114;28;20050;-79
2023/03/17 06:16:32;;;;;;;13.93;9.10;;;;;;;3.70;65.16;96281.56;4996063;28;20054;-79
2023/03/17 06:19:00;;;;;;;11.43;8.32;;;;;;;3.77;65.24;96296.47;4994552;28;20441;-79
2023/03/17 06:21:29;;;;;;;10.25;7.93;;;;;;;3.79;64.82;96299.69;4995400;28;20067;-78
2023/03/17 06:23:56;;;;;;;10.10;7.60;;;;;;;3.83;64.58;96299.25;4995318;28;20057;-79
2023/03/17 06:26:24;;;;;;;14.18;7.75;;;;;;;3.84;64.27;96312.97;4994952;28;20054;-79
2023/03/17 06:28:51;;;;;;;12.02;8.15;;;;;;;3.84;64.54;96318.13;4994370;28;20057;-79
2023/03/17 06:31:19;;;;;;;13.93;8.13;;;;;;;3.85;64.30;96317.19;4994733;28;20046;-79
2023/03/17 06:33:47;;;;;;;13.73;9.55;;;;;;;3.85;64.43;96310.25;4994833;28;20406;-79
2023/03/17 06:36:15;;;;;;;11.02;8.60;;;;;;;3.85;64.60;96314.59;4994866;28;20058;-79
2023/03/17 06:38:44;;;;;;;25.02;10.02;;;;;;;3.85;64.42;96323.16;4993902;28;20057;-78
2023/03/17 06:41:12;;;;;;;20.60;9.77;;;;;;;3.88;64.38;96315.09;4994253;28;20054;-78
2023/03/17 06:43:40;;;;;;;12.23;7.43;;;;;;;3.91;64.16;96303.66;4994363;28;20062;-78
2023/03/17 06:46:07;;;;;;;13.68;7.75;;;;;;;3.98;64.42;96302.13;4994818;28;20054;-79
2023/03/17 06:48:35;;;;;;;12.98;8.00;;;;;;;4.08;64.19;96305.44;4994023;28;20060;-79
2023/03/17 06:51:03;;;;;;;13.27;8.45;;;;;;;4.20;63.64;96297.47;4994406;28;20508;-79
2023/03/17 06:53:30;;;;;;;12.40;8.05;;;;;;;4.32;63.83;96307.41;4994442;28;20054;-79
2023/03/17 06:55:59;;;;;;;11.18;8.35;;;;;;;4.44;63.32;96309.75;4994446;28;20084;-79
2023/03/17 06:58:27;;;;;;;20.48;7.80;;;;;;;4.54;63.68;96303.53;4993690;28;20566;-79
2023/03/17 07:40:29;;;;;;;17.10;8.60;;;;;;;6.98;58.72;96318.97;5758684;23;20477;-79
2023/03/17 07:42:58;;;;;;;10.55;6.93;;;;;;;7.18;57.59;96310.81;5012831;28;20053;-79
2023/03/17 07:45:26;;;;;;;14.57;7.57;;;;;;;7.41;57.04;96290.94;5012800;28;20046;-79
2023/03/17 07:47:54;;;;;;;12.43;7.20;;;;;;;7.66;56.39;96306.41;5011879;28;20516;-79
2023/03/17 07:50:22;;;;;;;20.90;9.32;;;;;;;8.18;54.78;96292.75;5012399;28;20054;-79
2023/03/17 07:52:49;;;;;;;10.43;7.00;;;;;;;9.44;51.82;96296.41;5012855;28;20140;-79
2023/03/17 07:55:17;;;;;;;12.10;6.82;;;;;;;10.83;48.34;96290.94;5025305;22;20077;-80
2023/03/17 07:57:46;;;;;;;9.15;6.40;;;;;;;11.82;45.75;96297.63;4996127;28;20056;-80
2023/03/17 08:00:16;;;;;;;10.13;6.45;;;;;;;12.36;44.59;96303.78;4996350;28;20525;-79
2023/03/17 08:02:44;;;;;;;12.95;6.65;;;;;;;13.04;43.42;96302.75;4996594;28;20181;-79
2023/03/17 08:05:14;;;;;;;7.00;5.68;;;;;;;13.65;41.80;96299.78;5001898;28;20065;-82
2023/03/17 08:07:42;;;;;;;9.82;7.07;;;;;;;13.90;41.06;96297.22;5002448;28;20485;-81
2023/03/17 08:10:12;;;;;;;9.02;6.80;;;;;;;13.91;41.06;96293.59;5003263;28;20485;-82
2023/03/17 08:12:40;;;;;;;11.00;7.18;;;;;;;13.86;40.82;96295.25;5003875;28;20547;-80
2023/03/17 08:15:11;;;;;;;9.70;5.95;;;;;;;13.59;40.76;96301.41;5004368;28;20136;-81
2023/03/17 08:17:38;;;;;;;8.38;6.22;;;;;;;13.40;41.73;96302.28;5005397;28;20428;-83
2023/03/17 08:20:08;;;;;;;9.57;6.38;;;;;;;13.18;42.10;96297.28;5004116;28;20093;-80
2023/03/17 08:22:36;;;;;;;6.22;4.93;;;;;;;12.78;42.84;96293.94;5003739;28;20074;-81
2023/03/17 08:25:04;;;;;;;8.20;5.97;;;;;;;12.65;42.87;96294.72;5004126;28;20046;-80
2023/03/17 08:27:31;;;;;;;7.93;5.63;;;;;;;12.55;42.83;96296.94;5004614;28;20070;-82
2023/03/17 08:30:01;;;;;;;9.40;5.75;;;;;;;12.55;42.95;96291.72;5002941;28;20054;-83
2023/03/17 08:32:29;;;;;;;12.18;5.65;;;;;;;12.67;42.47;96292.72;5003259;28;20523;-82
2023/03/17 08:34:57;;;;;;;8.57;5.18;;;;;;;13.01;42.20;96295.28;5002925;28;20140;-80
2023/03/17 08:37:25;;;;;;;8.95;6.13;;;;;;;13.09;42.06;96295.09;5002633;28;20118;-79
2023/03/17 08:39:53;;;;;;;9.27;5.53;;;;;;;12.85;42.21;96286.06;5002232;28;20538;-82
2023/03/17 08:42:21;;;;;;;6.45;4.80;;;;;;;12.55;42.49;96289.91;5003058;28;20054;-81
2023/03/17 08:44:48;;;;;;;7.25;5.15;;;;;;;12.34;42.77;96283.06;5005076;28;20054;-82
2023/03/17 08:47:16;;;;;;;6.53;5.40;;;;;;;12.27;42.75;96284.06;5004788;28;20052;-82
2023/03/17 08:49:45;;;;;;;10.38;5.53;;;;;;;12.63;42.56;96286.28;5004370;28;20051;-83
2023/03/17 08:52:13;;;;;;;7.63;5.43;;;;;;;13.12;41.90;96285.03;5004530;28;20129;-83
2023/03/17 08:54:41;;;;;;;7.97;4.95;;;;;;;13.71;40.43;96271.91;5004554;28;20331;-83
2023/03/17 08:57:08;;;;;;;6.32;5.00;;;;;;;14.28;38.95;96267.56;5005026;28;20065;-83
2023/03/17 08:59:36;;;;;;;10.95;7.03;;;;;;;15.47;38.09;96270.09;5003601;28;20138;-80
2023/03/17 09:02:04;;;;;;;7.25;4.88;;;;;;;16.65;35.59;96265.22;5004868;28;20065;-83
2023/03/17 09:04:32;;;;;;;8.75;5.18;;;;;;;17.42;34.83;96264.25;5004694;28;20058;-81
2023/03/17 09:07:01;;;;;;;5.70;4.38;;;;;;;17.70;33.00;96258.22;5004243;28;20492;-83
2023/03/17 09:09:31;;;;;;;6.78;4.80;;;;;;;17.97;33.06;96261.09;5002901;28;20043;-81
2023/03/17 09:11:58;;;;;;;5.13;4.63;;;;;;;18.23;32.66;96258.91;5002475;28;20054;-82
2023/03/17 09:14:26;;;;;;;5.97;4.47;;;;;;;18.20;32.32;96275.25;5001694;28;20056;-82
2023/03/17 09:16:54;;;;;;;5.88;4.50;;;;;;;17.98;32.40;96269.84;5001250;28;20056;-82
2023/03/17 09:19:22;;;;;;;6.30;4.28;;;;;;;17.88;32.81;96276.50;5003785;28;20487;-85
2023/03/17 09:21:50;;;;;;;4.75;4.25;;;;;;;17.85;32.60;96270.91;5004890;28;20496;-83
2023/03/17 09:24:20;;;;;;;4.65;4.10;;;;;;;17.61;33.38;96276.25;5004759;28;20062;-83
2023/03/17 09:26:48;;;;;;;4.03;3.33;;;;;;;17.53;33.73;96268.69;5005542;28;20050;-82
2023/03/17 09:29:15;;;;;;;5.35;3.42;;;;;;;17.51;33.50;96273.41;5005022;28;20051;-82
2023/03/17 09:31:43;;;;;;;6.88;3.20;;;;;;;17.24;34.86;96267.84;5005869;28;20050;-81
2023/03/17 09:34:11;;;;;;;3.83;2.88;;;;;;;17.06;35.84;96266.94;5006512;28;20053;-81
2023/03/17 09:36:38;;;;;;;7.70;3.42;;;;;;;17.15;35.86;96256.84;5007574;28;20432;-82
2023/03/17 09:39:06;;;;;;;4.30;3.08;;;;;;;17.24;35.07;96258.09;5006659;28;20125;-81
2023/03/17 09:41:55;;;;;;;3.30;3.00;;;;;;;17.44;33.48;96262.19;5008021;28;20110;-82
2023/03/17 09:44:37;;;;;;;4.72;3.63;;;;;;;17.57;34.83;96256.66;5007919;28;20065;-81
2023/03/17 09:47:22;;;;;;;4.55;2.97;;;;;;;17.64;32.37;96264.41;5007876;28;20054;-82
2023/03/17 09:49:53;;;;;;;4.35;2.55;;;;;;;17.71;32.84;96265.91;5005473;28;20050;-81
2023/03/17 09:52:26;;;;;;;4.22;2.25;;;;;;;17.83;31.70;96265.06;5006139;28;20081;-82
2023/03/17 09:54:54;;;;;;;2.80;2.58;;;;;;;17.95;33.67;96260.56;5006237;28;20050;-84
2023/03/17 09:57:26;;;;;;;4.90;2.35;;;;;;;18.14;32.00;96260.34;5006443;28;20106;-83
2023/03/17 10:00:05;;;;;;;4.57;2.83;;;;;;;18.36;32.67;96257.81;5005541;28;20046;-83
2023/03/17 10:02:36;;;;;;;4.93;3.53;;;;;;;18.61;31.37;96255.56;5006371;28;20085;-81
2023/03/17 10:05:13;;;;;;;5.38;3.08;;;;;;;18.86;30.70;96257.81;5005893;28;20149;-83
2023/03/17 10:07:48;;;;;;;2.70;2.25;;;;;;;19.20;31.46;96252.47;5007792;28;20054;-84
2023/03/17 10:10:24;;;;;;;4.47;2.80;;;;;;;19.55;29.88;96253.94;5005611;28;20050;-82
2023/03/17 10:13:05;;;;;;;5.78;2.42;;;;;;;19.75;29.32;96248.91;5006341;28;20058;-84
2023/03/17 10:15:37;;;;;;;2.65;1.95;;;;;;;19.98;30.84;96251.50;5005729;28;20061;-84
2023/03/17 10:18:10;;;;;;;6.47;2.13;;;;;;;20.26;28.80;96248.59;5005113;28;20137;-85
2023/03/17 10:20:46;;;;;;;6.40;1.85;;;;;;;20.46;28.21;96247.97;5005881;28;20051;-82
2023/03/17 10:23:20;;;;;;;3.85;1.90;;;;;;;20.60;28.31;96242.25;5005355;28;20416;-83
2023/03/17 10:25:48;;;;;;;5.38;2.33;;;;;;;20.82;27.98;96237.66;5006201;28;20054;-82
2023/03/17 10:28:28;;;;;;;6.13;2.38;;;;;;;21.06;27.01;96231.97;5004656;28;20562;-84
2023/03/17 10:31:01;;;;;;;3.47;1.67;;;;;;;21.33;27.43;96240.56;5005481;28;20054;-82
2023/03/17 10:33:31;;;;;;;3.03;2.08;;;;;;;21.65;27.09;96231.69;5004815;28;20113;-80
2023/03/17 10:36:08;;;;;;;2.85;1.73;;;;;;;21.94;25.87;96225.91;5004091;28;20054;-83
2023/03/17 10:38:36;;;;;;;2.15;1.60;;;;;;;22.21;27.12;96229.16;5006822;28;20058;-82
2023/03/17 10:41:09;;;;;;;2.53;1.73;;;;;;;22.50;27.12;96233.97;5007304;28;20072;-83
2023/03/17 10:43:43;;;;;;;3.63;1.50;;;;;;;22.84;25.33;96226.19;5006624;28;20132;-84
2023/03/17 10:46:20;;;;;;;1.88;1.45;;;;;;;23.24;23.80;96229.03;5005634;28;20052;-84
2023/03/17 10:48:53;;;;;;;2.53;1.35;;;;;;;23.30;24.10;96235.16;5005674;28;20056;-84
2023/03/17 10:51:29;;;;;;;1.23;1.10;;;;;;;23.41;24.46;96240.16;5006522;28;20108;-84
2023/03/17 10:54:00;;;;;;;1.30;1.20;;;;;;;23.50;24.27;96235.06;5005726;28;20069;-83
2023/03/17 10:56:33;;;;;;;2.03;1.45;;;;;;;23.63;23.27;96236.34;5007180;28;20168;-82
2023/03/17 10:59:07;;;;;;;2.03;1.50;;;;;;;23.84;23.50;96229.88;5006617;28;20504;-81
2023/03/17 11:01:38;;;;;;;2.65;1.30;;;;;;;24.09;23.31;96229.97;5007560;28;20064;-82
2023/03/17 11:04:26;;;;;;;3.83;1.50;;;;;;;24.39;24.19;96236.97;5007202;28;20400;-85
2023/03/17 11:06:56;;;;;;;1.92;1.30;;;;;;;24.72;23.02;96229.25;5007929;28;20114;-84
2023/03/17 11:09:25;;;;;;;2.63;1.52;;;;;;;24.98;24.41;96227.91;5007821;28;20046;-82
2023/03/17 11:12:01;;;;;;;2.30;1.45;;;;;;;25.23;24.48;96228.72;5007345;28;20057;-84
2023/03/17 11:14:30;;;;;;;3.03;1.73;;;;;;;25.44;23.22;96230.06;5005712;28;20042;-82
2023/03/17 11:17:01;;;;;;;2.30;1.70;;;;;;;25.76;22.93;96222.44;5007400;28;20082;-84
2023/03/17 11:19:40;;;;;;;4.30;1.63;;;;;;;26.18;22.03;96221.63;5006160;28;20216;-84
2023/03/17 11:22:13;;;;;;;1.55;1.27;;;;;;;26.47;21.65;96217.94;5007473;28;20489;-82
2023/03/17 11:24:54;;;;;;;1.75;1.20;;;;;;;26.64;21.71;96212.88;5005768;28;20054;-83
2023/03/17 11:27:29;;;;;;;2.17;1.40;;;;;;;26.79;22.74;96211.03;5006327;28;20527;-82
2023/03/17 11:30:14;;;;;;;3.25;1.52;;;;;;;26.94;22.20;96205.41;5004867;28;20118;-84
2023/03/17 11:32:45;;;;;;;1.77;1.45;;;;;;;27.16;22.29;96204.69;5005473;28;20070;-82
2023/03/17 11:35:32;;;;;;;3.55;1.10;;;;;;;27.24;22.59;96200.56;5005552;28;20042;-82
2023/03/17 11:38:14;;;;;;;2.55;1.17;;;;;;;27.27;20.17;96203.44;5003600;28;20057;-86
2023/03/17 11:40:56;;;;;;;1.98;1.40;;;;;;;27.18;21.13;96196.34;5003585;28;20062;-81
2023/03/17 11:43:33;;;;;;;2.88;1.20;;;;;;;27.11;21.08;96200.25;5003899;28;20050;-81
2023/03/17 11:46:09;;;;;;;4.53;1.70;;;;;;;27.20;21.21;96194.16;5003213;28;20054;-81
2023/03/17 11:48:48;;;;;;;2.05;1.10;;;;;;;27.20;20.10;96195.00;5002928;28;20046;-81
2023/03/17 11:51:26;;;;;;;2.53;1.33;;;;;;;26.94;19.92;96194.69;5003654;28;20061;-80
2023/03/17 11:54:08;;;;;;;3.03;1.15;;;;;;;26.54;20.34;96190.81;5002944;28;20046;-82
2023/03/17 11:56:41;;;;;;;1.23;0.95;;;;;;;26.37;20.33;96186.03;5003155;28;20539;-84
2023/03/17 11:59:20;;;;;;;0.95;0.85;;;;;;;26.20;20.08;96192.72;5002374;28;20491;-81
2023/03/17 12:01:58;;;;;;;1.20;1.02;;;;;;;26.14;21.41;96177.84;4985359;28;20592;-82
2023/03/17 12:04:33;;;;;;;1.52;1.02;;;;;;;26.25;21.19;96176.59;5002429;28;20141;-82
2023/03/17 12:07:07;;;;;;;4.40;1.40;;;;;;;26.42;20.71;96177.94;5002598;28;20497;-82
2023/03/17 12:09:39;;;;;;;1.20;1.10;;;;;;;26.35;19.86;96177.50;5001416;28;20496;-81
2023/03/17 12:12:10;;;;;;;1.48;0.90;;;;;;;26.12;20.29;96163.97;5001262;28;20060;-81
2023/03/17 12:14:43;;;;;;;3.95;1.13;;;;;;;25.97;20.71;96166.88;5001147;28;20069;-81
2023/03/17 12:17:18;;;;;;;2.45;1.05;;;;;;;25.82;20.32;96165.19;5000383;28;20148;-80
2023/03/17 12:20:05;;;;;;;1.40;0.82;;;;;;;25.69;23.23;96166.72;5000838;28;20109;-82
2023/03/17 12:22:39;;;;;;;1.92;1.10;;;;;;;25.49;20.46;96168.63;5008621;28;20105;-82
2023/03/17 12:25:16;;;;;;;1.80;1.00;;;;;;;24.98;20.64;96153.19;5004855;28;20051;-82
2023/03/17 12:27:50;;;;;;;1.20;0.90;;;;;;;24.47;20.75;96157.16;5004303;28;20054;-85
2023/03/17 12:30:27;;;;;;;2.88;1.52;;;;;;;24.06;21.42;96156.72;5003175;28;20050;-85